Sumisemaru No.5 — JE3162 — position and weather

sailwx.info

Track history (hours):
 
Tides and Currents Weather Stations Pressure Air Temp Water Temp Dewpoint Dewpoint Depression Visibility Wind Speed Wind Dir Waves Ship Positions

Sumisemaru No.5

Last reported at 2017-Feb-21 07:33 UTC. Time now 2017-Feb-24 08:10 UTC.
Position N 35°01' E 139°43'.

Length 96 m; draft 5.1 m.

Type: Cargo ship. MMSI: 431700423.

Date/timePositionNaut miles runAvg speedWind from/ knotsBaromVisibWave heightAir tempDewpointWater temp
2017-Feb-21 07:33N 35°01' E 139°43'1413.8
2017-Feb-21 06:33N 35°14' E 139°46'1211.6
2017-Feb-21 05:33N 35°26' E 139°46'1111.1
2017-Feb-21 04:33N 35°37' E 139°46'1 0.8
2017-Feb-21 03:14N 35°38' E 139°45'0 0.1
2017-Feb-21 02:31N 35°38' E 139°46'0 0.0
2017-Feb-21 01:14N 35°38' E 139°46'0 0.1
2017-Feb-21 00:20N 35°38' E 139°45'1 0.9
2017-Feb-20 23:33N 35°37' E 139°46'9 8.9
2017-Feb-20 22:33N 35°31' E 139°53'8 7.9
2017-Feb-20 21:33N 35°26' E 139°45'5 4.5
2017-Feb-20 20:33N 35°29' E 139°40'0 0.0
2017-Feb-20 19:33N 35°29' E 139°40'0 0.0
2017-Feb-20 18:33N 35°29' E 139°40'0 0.0
2017-Feb-20 17:33N 35°29' E 139°40'0 0.0
2017-Feb-20 16:33N 35°29' E 139°40'0 0.0
2017-Feb-20 15:33N 35°29' E 139°40'0 0.0
2017-Feb-20 14:33N 35°29' E 139°40'0 0.0
2017-Feb-20 13:33N 35°29' E 139°40'0 0.0
2017-Feb-20 12:33N 35°29' E 139°40'0 0.0
2017-Feb-20 11:33N 35°29' E 139°40'0 0.0
2017-Feb-20 10:33N 35°29' E 139°40'0 0.0
2017-Feb-20 09:31N 35°29' E 139°40'0 0.0
2017-Feb-20 08:31N 35°29' E 139°40'0 0.0
2017-Feb-20 07:28N 35°29' E 139°40'0 0.0
2017-Feb-20 06:31N 35°29' E 139°40'0 0.0
2017-Feb-20 05:31N 35°29' E 139°40'0 0.0
2017-Feb-20 04:31N 35°29' E 139°40'1 1.0
2017-Feb-20 03:34N 35°28' E 139°40'5 5.1
2017-Feb-20 02:33N 35°24' E 139°44'0 0.0
2017-Feb-20 01:33N 35°24' E 139°44'0 0.0
2017-Feb-20 00:32N 35°24' E 139°44'8 8.6
2017-Feb-19 23:33N 35°16' E 139°46'1212.0
2017-Feb-19 22:34N 35°04' E 139°45'1312.3
2017-Feb-19 21:32N 34°57' E 139°32'  
2017-Feb-12 00:31N 34°59' E 139°42'1213.0
2017-Feb-11 23:33N 35°11' E 139°46'1212.4
2017-Feb-11 22:33N 35°23' E 139°42'6 5.9
2017-Feb-11 21:33N 35°29' E 139°40'0 0.0
2017-Feb-11 20:32N 35°29' E 139°40'0 0.0
2017-Feb-11 19:32N 35°29' E 139°40'0 0.0
2017-Feb-11 18:32N 35°29' E 139°40'0 0.0
2017-Feb-11 17:32N 35°29' E 139°40'0 0.0
2017-Feb-11 16:32N 35°29' E 139°40'0 0.0
2017-Feb-11 15:32N 35°29' E 139°40'0 0.0
2017-Feb-11 14:32N 35°29' E 139°40'0 0.0
2017-Feb-11 13:32N 35°29' E 139°40'0 0.0
2017-Feb-11 12:32N 35°29' E 139°40'0 0.0
2017-Feb-11 11:32N 35°29' E 139°40'0 0.0
2017-Feb-11 10:32N 35°29' E 139°40'0 0.0
2017-Feb-11 09:32N 35°29' E 139°40'0 0.0
2017-Feb-11 08:32N 35°29' E 139°40'  
Track history (hours):
 
Tides and Currents Weather Stations Pressure Air Temp Water Temp Dewpoint Dewpoint Depression Visibility Wind Speed Wind Dir Waves Ship Positions

Sumisemaru No.5

Last reported at 2017-Feb-21 07:33 UTC. Time now 2017-Feb-24 08:10 UTC.
Position N 35°01' E 139°43'.

Length 96 m; draft 5.1 m.

Type: Cargo ship. MMSI: 431700423.

Date/timePositionNaut miles runAvg speedWind from/ knotsBaromVisibWave heightAir tempDewpointWater temp
2017-Feb-21 07:33N 35°01' E 139°43'1413.8
2017-Feb-21 06:33N 35°14' E 139°46'1211.6
2017-Feb-21 05:33N 35°26' E 139°46'1111.1
2017-Feb-21 04:33N 35°37' E 139°46'1 0.8
2017-Feb-21 03:14N 35°38' E 139°45'0 0.1
2017-Feb-21 02:31N 35°38' E 139°46'0 0.0
2017-Feb-21 01:14N 35°38' E 139°46'0 0.1
2017-Feb-21 00:20N 35°38' E 139°45'1 0.9
2017-Feb-20 23:33N 35°37' E 139°46'9 8.9
2017-Feb-20 22:33N 35°31' E 139°53'8 7.9
2017-Feb-20 21:33N 35°26' E 139°45'5 4.5
2017-Feb-20 20:33N 35°29' E 139°40'0 0.0
2017-Feb-20 19:33N 35°29' E 139°40'0 0.0
2017-Feb-20 18:33N 35°29' E 139°40'0 0.0
2017-Feb-20 17:33N 35°29' E 139°40'0 0.0
2017-Feb-20 16:33N 35°29' E 139°40'0 0.0
2017-Feb-20 15:33N 35°29' E 139°40'0 0.0
2017-Feb-20 14:33N 35°29' E 139°40'0 0.0
2017-Feb-20 13:33N 35°29' E 139°40'0 0.0
2017-Feb-20 12:33N 35°29' E 139°40'0 0.0
2017-Feb-20 11:33N 35°29' E 139°40'0 0.0
2017-Feb-20 10:33N 35°29' E 139°40'0 0.0
2017-Feb-20 09:31N 35°29' E 139°40'0 0.0
2017-Feb-20 08:31N 35°29' E 139°40'0 0.0
2017-Feb-20 07:28N 35°29' E 139°40'0 0.0
2017-Feb-20 06:31N 35°29' E 139°40'0 0.0
2017-Feb-20 05:31N 35°29' E 139°40'0 0.0
2017-Feb-20 04:31N 35°29' E 139°40'1 1.0
2017-Feb-20 03:34N 35°28' E 139°40'5 5.1
2017-Feb-20 02:33N 35°24' E 139°44'0 0.0
2017-Feb-20 01:33N 35°24' E 139°44'0 0.0
2017-Feb-20 00:32N 35°24' E 139°44'8 8.6
2017-Feb-19 23:33N 35°16' E 139°46'1212.0
2017-Feb-19 22:34N 35°04' E 139°45'1312.3
2017-Feb-19 21:32N 34°57' E 139°32'  
2017-Feb-12 00:31N 34°59' E 139°42'1213.0
2017-Feb-11 23:33N 35°11' E 139°46'1212.4
2017-Feb-11 22:33N 35°23' E 139°42'6 5.9
2017-Feb-11 21:33N 35°29' E 139°40'0 0.0
2017-Feb-11 20:32N 35°29' E 139°40'0 0.0
2017-Feb-11 19:32N 35°29' E 139°40'0 0.0
2017-Feb-11 18:32N 35°29' E 139°40'0 0.0
2017-Feb-11 17:32N 35°29' E 139°40'0 0.0
2017-Feb-11 16:32N 35°29' E 139°40'0 0.0
2017-Feb-11 15:32N 35°29' E 139°40'0 0.0
2017-Feb-11 14:32N 35°29' E 139°40'0 0.0
2017-Feb-11 13:32N 35°29' E 139°40'0 0.0
2017-Feb-11 12:32N 35°29' E 139°40'0 0.0
2017-Feb-11 11:32N 35°29' E 139°40'0 0.0
2017-Feb-11 10:32N 35°29' E 139°40'0 0.0
2017-Feb-11 09:32N 35°29' E 139°40'0 0.0
2017-Feb-11 08:32N 35°29' E 139°40'  

Dump ship's entire track history